Wetterdaten: Woche 02.05.16 - 08.05.16 (KW18)
Datum Zeit Temp. I. Temp. A. Feuchte I. Feuchte A. Luftdruck Regen Wind Richtung Sonnenschein UV Solar Taupunkt Windchill Windben
02.05.2016 00:00 23,2 C 7,1 C 43 % 78 % 1022,1 hPa 0,0 l/m 0,0 km/h (0 Bft) N 0,00 h 0,0 UV-I 0 W/m 3,4 C 7,1 C 0,0 km/h (0 Bft)
02.05.2016 01:00 23,1 C 6,1 C 43 % 81 % 1022,3 hPa 0,0 l/m 2,9 km/h (1 Bft) N 0,00 h 0,0 UV-I 0 W/m 3,2 C 5,9 C 3,1 km/h (1 Bft)
02.05.2016 02:00 23,0 C 5,6 C 44 % 81 % 1022,3 hPa 0,0 l/m 0,2 km/h (0 Bft) N 0,00 h 0,0 UV-I 0 W/m 2,6 C 5,6 C 0,5 km/h (0 Bft)
02.05.2016 03:00 22,9 C 4,5 C 44 % 83 % 1022,4 hPa 0,0 l/m 0,0 km/h (0 Bft) N 0,00 h 0,0 UV-I 0 W/m 1,9 C 4,5 C 0,0 km/h (0 Bft)
02.05.2016 04:00 22,8 C 3,4 C 44 % 85 % 1022,7 hPa 0,0 l/m 0,1 km/h (0 Bft) N 0,00 h 0,0 UV-I 0 W/m 1,1 C 3,4 C 0,2 km/h (0 Bft)
02.05.2016 05:00 22,8 C 2,5 C 44 % 88 % 1022,6 hPa 0,0 l/m 0,1 km/h (0 Bft) N 0,00 h 0,0 UV-I 5 W/m 0,7 C 2,5 C 0,4 km/h (0 Bft)
02.05.2016 06:00 22,8 C 2,2 C 44 % 89 % 1022,7 hPa 0,0 l/m 0,0 km/h (0 Bft) N 0,00 h 0,0 UV-I 19 W/m 0,6 C 2,2 C 0,0 km/h (0 Bft)
02.05.2016 07:00 22,8 C 3,8 C 44 % 92 % 1022,9 hPa 0,0 l/m 0,6 km/h (0 Bft) N 0,75 h 0,6 UV-I 197 W/m 2,6 C 3,8 C 1,5 km/h (1 Bft)
02.05.2016 08:00 23,0 C 10,2 C 45 % 73 % 1022,6 hPa 0,0 l/m 4,3 km/h (1 Bft) N-NO 1,00 h 1,2 UV-I 399 W/m 5,5 C 9,5 C 9,6 km/h (2 Bft)
02.05.2016 09:00 23,2 C 13,2 C 44 % 59 % 1022,1 hPa 0,0 l/m 4,4 km/h (1 Bft) N-NO 1,00 h 2,1 UV-I 585 W/m 5,3 C 12,6 C 9,3 km/h (2 Bft)
02.05.2016 10:00 22,9 C 14,7 C 41 % 52 % 1021,9 hPa 0,0 l/m 2,4 km/h (1 Bft) O-NO 1,00 h 3,3 UV-I 730 W/m 4,8 C 14,6 C 7,6 km/h (2 Bft)
02.05.2016 11:00 22,7 C 15,2 C 40 % 49 % 1021,6 hPa 0,0 l/m 5,4 km/h (1 Bft) SO 1,00 h 4,2 UV-I 798 W/m 4,5 C 14,7 C 12,9 km/h (3 Bft)
02.05.2016 12:00 22,9 C 16,1 C 40 % 47 % 1021,1 hPa 0,0 l/m 2,1 km/h (1 Bft) SO 1,00 h 4,5 UV-I 762 W/m 4,7 C 16,1 C 5,8 km/h (2 Bft)
02.05.2016 13:00 23,1 C 17,6 C 40 % 44 % 1020,6 hPa 0,0 l/m 3,1 km/h (1 Bft) N 1,00 h 4,3 UV-I 644 W/m 5,3 C 17,5 C 4,3 km/h (1 Bft)
02.05.2016 14:00 23,4 C 18,5 C 40 % 42 % 1020,0 hPa 0,0 l/m 2,3 km/h (1 Bft) N-NO 1,00 h 4,1 UV-I 756 W/m 5,2 C 18,3 C 5,6 km/h (1 Bft)
02.05.2016 15:00 23,6 C 18,8 C 39 % 39 % 1019,4 hPa 0,0 l/m 3,3 km/h (1 Bft) N-NO 0,98 h 3,1 UV-I 614 W/m 4,3 C 18,5 C 7,9 km/h (2 Bft)
02.05.2016 16:00 23,3 C 18,0 C 37 % 40 % 1019,0 hPa 0,0 l/m 3,0 km/h (1 Bft) N-NO 0,53 h 1,8 UV-I 283 W/m 4,2 C 17,8 C 7,2 km/h (2 Bft)
02.05.2016 17:00 23,3 C 17,4 C 37 % 42 % 1018,6 hPa 0,0 l/m 1,9 km/h (1 Bft) N-NO 0,40 h 1,0 UV-I 208 W/m 4,5 C 17,2 C 4,2 km/h (1 Bft)
02.05.2016 18:00 23,9 C 16,6 C 39 % 45 % 1018,4 hPa 0,0 l/m 0,8 km/h (0 Bft) O-NO 0,03 h 0,5 UV-I 87 W/m 4,6 C 16,5 C 2,7 km/h (1 Bft)
02.05.2016 19:00 24,1 C 15,4 C 39 % 49 % 1018,3 hPa 0,0 l/m 0,8 km/h (0 Bft) O-NO 0,00 h 0,0 UV-I 33 W/m 4,8 C 15,4 C 2,6 km/h (1 Bft)
02.05.2016 20:00 24,2 C 13,7 C 40 % 57 % 1018,6 hPa 0,0 l/m 0,7 km/h (0 Bft) O-NO 0,00 h 0,0 UV-I 11 W/m 5,2 C 13,7 C 2,7 km/h (1 Bft)
02.05.2016 21:00 24,2 C 11,7 C 40 % 63 % 1019,0 hPa 0,0 l/m 0,0 km/h (0 Bft) N 0,00 h 0,0 UV-I 0 W/m 5,0 C 11,7 C 0,2 km/h (0 Bft)
02.05.2016 22:00 23,8 C 10,0 C 41 % 69 % 1019,0 hPa 0,0 l/m 0,0 km/h (0 Bft) N 0,00 h 0,0 UV-I 0 W/m 4,6 C 10,0 C 0,0 km/h (0 Bft)
02.05.2016 23:00 23,5 C 8,0 C 41 % 78 % 1019,0 hPa 0,0 l/m 0,0 km/h (0 Bft) N 0,00 h 0,0 UV-I 0 W/m 4,4 C 8,0 C 0,0 km/h (0 Bft)
03.05.2016 00:00 23,3 C 6,8 C 42 % 83 % 1019,1 hPa 0,0 l/m 0,0 km/h (0 Bft) N 0,00 h 0,0 UV-I 0 W/m 4,1 C 6,8 C 0,0 km/h (0 Bft)
03.05.2016 01:00 23,2 C 6,0 C 42 % 84 % 1018,8 hPa 0,0 l/m 0,0 km/h (0 Bft) N 0,00 h 0,0 UV-I 0 W/m 3,5 C 6,0 C 0,0 km/h (0 Bft)
03.05.2016 02:00 23,1 C 5,0 C 43 % 86 % 1018,1 hPa 0,0 l/m 0,0 km/h (0 Bft) N 0,00 h 0,0 UV-I 0 W/m 2,9 C 5,0 C 0,0 km/h (0 Bft)
03.05.2016 03:00 23,2 C 4,1 C 43 % 87 % 1017,7 hPa 0,0 l/m 0,0 km/h (0 Bft) N 0,00 h 0,0 UV-I 0 W/m 2,1 C 4,1 C 0,0 km/h (0 Bft)
03.05.2016 04:00 23,0 C 3,3 C 43 % 88 % 1017,5 hPa 0,0 l/m 0,0 km/h (0 Bft) N 0,00 h 0,0 UV-I 0 W/m 1,6 C 3,3 C 0,0 km/h (0 Bft)
03.05.2016 05:00 23,0 C 2,6 C 44 % 89 % 1017,2 hPa 0,0 l/m 0,0 km/h (0 Bft) N 0,00 h 0,0 UV-I 6 W/m 1,0 C 2,6 C 0,0 km/h (0 Bft)
03.05.2016 06:00 22,9 C 2,1 C 44 % 90 % 1017,3 hPa 0,0 l/m 0,0 km/h (0 Bft) N 0,00 h 0,0 UV-I 20 W/m 0,7 C 2,1 C 0,0 km/h (0 Bft)
03.05.2016 07:00 23,2 C 3,6 C 44 % 92 % 1017,3 hPa 0,0 l/m 0,0 km/h (0 Bft) N 0,72 h 0,6 UV-I 197 W/m 2,3 C 3,6 C 0,0 km/h (0 Bft)
03.05.2016 08:00 23,7 C 8,1 C 43 % 82 % 1017,0 hPa 0,0 l/m 0,0 km/h (0 Bft) N 1,00 h 1,2 UV-I 392 W/m 5,1 C 8,1 C 0,0 km/h (0 Bft)
03.05.2016 09:00 23,8 C 11,8 C 43 % 68 % 1016,8 hPa 0,0 l/m 0,5 km/h (0 Bft) W-SW 1,00 h 2,2 UV-I 543 W/m 6,1 C 11,8 C 1,3 km/h (1 Bft)
03.05.2016 10:00 23,4 C 14,3 C 40 % 59 % 1016,4 hPa 0,0 l/m 1,1 km/h (1 Bft) W-SW 1,00 h 3,3 UV-I 674 W/m 6,5 C 14,3 C 3,2 km/h (1 Bft)
03.05.2016 11:00 23,4 C 16,5 C 40 % 49 % 1016,3 hPa 0,0 l/m 6,0 km/h (2 Bft) NW 1,00 h 4,1 UV-I 739 W/m 5,7 C 15,9 C 11,6 km/h (2 Bft)
03.05.2016 12:00 23,5 C 17,6 C 40 % 44 % 1016,0 hPa 0,0 l/m 8,1 km/h (2 Bft) NW 1,00 h 4,6 UV-I 753 W/m 5,3 C 16,4 C 16,5 km/h (3 Bft)
03.05.2016 13:00 23,7 C 18,5 C 39 % 41 % 1015,4 hPa 0,0 l/m 7,8 km/h (2 Bft) N 1,00 h 4,0 UV-I 632 W/m 5,0 C 17,5 C 14,9 km/h (3 Bft)
03.05.2016 14:00 24,1 C 17,7 C 38 % 42 % 1015,1 hPa 0,0 l/m 7,1 km/h (2 Bft) N 0,58 h 2,0 UV-I 284 W/m 4,6 C 16,8 C 13,3 km/h (3 Bft)
03.05.2016 15:00 24,1 C 15,8 C 39 % 55 % 1015,3 hPa 0,6 l/m 7,9 km/h (2 Bft) W-NW 0,55 h 1,2 UV-I 187 W/m 6,5 C 14,4 C 13,2 km/h (3 Bft)
03.05.2016 16:00 24,0 C 14,9 C 39 % 67 % 1015,6 hPa 0,0 l/m 10,2 km/h (2 Bft) NW 1,00 h 1,4 UV-I 277 W/m 8,8 C 12,9 C 16,5 km/h (3 Bft)
03.05.2016 17:00 23,9 C 14,0 C 40 % 61 % 1015,9 hPa 0,0 l/m 13,1 km/h (3 Bft) N 0,82 h 0,9 UV-I 171 W/m 6,5 C 10,8 C 18,4 km/h (3 Bft)
03.05.2016 18:00 24,0 C 12,2 C 41 % 72 % 1017,2 hPa 0,0 l/m 15,8 km/h (3 Bft) N-NW 0,10 h 0,6 UV-I 103 W/m 7,2 C 7,7 C 26,4 km/h (4 Bft)
03.05.2016 19:00 23,9 C 9,8 C 41 % 78 % 1018,7 hPa 0,0 l/m 14,2 km/h (3 Bft) NW 0,00 h 0,0 UV-I 18 W/m 6,3 C 5,5 C 21,5 km/h (4 Bft)
03.05.2016 20:00 23,8 C 8,9 C 42 % 81 % 1019,8 hPa 0,0 l/m 11,7 km/h (2 Bft) N-NW 0,00 h 0,0 UV-I 6 W/m 5,8 C 5,6 C 18,4 km/h (3 Bft)
03.05.2016 21:00 23,8 C 8,4 C 43 % 86 % 1020,9 hPa 0,4 l/m 8,5 km/h (2 Bft) N 0,00 h 0,0 UV-I 0 W/m 6,1 C 6,6 C 13,3 km/h (3 Bft)
03.05.2016 22:00 23,6 C 7,6 C 42 % 88 % 1021,7 hPa 0,0 l/m 10,2 km/h (2 Bft) N 0,00 h 0,0 UV-I 0 W/m 5,7 C 4,8 C 16,1 km/h (3 Bft)
03.05.2016 23:00 23,4 C 7,3 C 43 % 86 % 1022,2 hPa 0,0 l/m 9,3 km/h (2 Bft) N 0,00 h 0,0 UV-I 0 W/m 5,1 C 5,0 C 15,0 km/h (3 Bft)
04.05.2016 00:00 23,3 C 6,9 C 44 % 86 % 1022,6 hPa 0,0 l/m 11,4 km/h (2 Bft) N 0,00 h 0,0 UV-I 0 W/m 4,7 C 3,5 C 16,3 km/h (3 Bft)
04.05.2016 01:00 23,2 C 6,5 C 44 % 87 % 1022,8 hPa 0,0 l/m 7,1 km/h (2 Bft) N 0,00 h 0,0 UV-I 0 W/m 4,5 C 5,3 C 12,2 km/h (2 Bft)
04.05.2016 02:00 23,1 C 6,4 C 44 % 86 % 1023,0 hPa 0,0 l/m 8,2 km/h (2 Bft) N 0,00 h 0,0 UV-I 0 W/m 4,3 C 4,6 C 12,4 km/h (3 Bft)
04.05.2016 03:00 23,1 C 6,4 C 45 % 87 % 1023,3 hPa 0,0 l/m 7,6 km/h (2 Bft) N-NW 0,00 h 0,0 UV-I 0 W/m 4,4 C 4,9 C 11,3 km/h (2 Bft)
04.05.2016 04:00 23,0 C 6,3 C 44 % 89 % 1023,8 hPa 0,0 l/m 5,2 km/h (1 Bft) NW 0,00 h 0,0 UV-I 0 W/m 4,6 C 5,6 C 9,1 km/h (2 Bft)
04.05.2016 05:00 22,9 C 6,2 C 45 % 87 % 1024,3 hPa 0,0 l/m 6,2 km/h (2 Bft) NW 0,00 h 0,0 UV-I 0 W/m 4,2 C 5,1 C 10,4 km/h (2 Bft)
04.05.2016 06:00 22,9 C 6,0 C 45 % 85 % 1024,8 hPa 0,0 l/m 6,6 km/h (2 Bft) N-NW 0,00 h 0,0 UV-I 7 W/m 3,6 C 5,0 C 11,1 km/h (2 Bft)
04.05.2016 07:00 23,0 C 5,7 C 45 % 85 % 1025,3 hPa 0,0 l/m 9,4 km/h (2 Bft) NW 0,00 h 0,0 UV-I 20 W/m 3,4 C 3,1 C 15,1 km/h (3 Bft)
04.05.2016 08:00 23,4 C 5,4 C 45 % 86 % 1025,9 hPa 0,0 l/m 8,9 km/h (2 Bft) N 0,00 h 0,0 UV-I 41 W/m 3,3 C 2,9 C 13,5 km/h (3 Bft)
04.05.2016 09:00 23,7 C 5,9 C 43 % 83 % 1026,3 hPa 0,0 l/m 7,8 km/h (2 Bft) N 0,55 h 1,2 UV-I 150 W/m 3,2 C 4,3 C 12,2 km/h (2 Bft)
04.05.2016 10:00 23,3 C 6,9 C 42 % 76 % 1026,7 hPa 0,0 l/m 9,0 km/h (2 Bft) N 0,78 h 1,7 UV-I 247 W/m 3,0 C 4,7 C 14,0 km/h (3 Bft)
04.05.2016 11:00 23,3 C 9,6 C 43 % 65 % 1026,7 hPa 0,0 l/m 11,1 km/h (2 Bft) N 1,00 h 3,5 UV-I 615 W/m 3,4 C 6,6 C 17,7 km/h (3 Bft)
04.05.2016 12:00 23,4 C 10,2 C 43 % 60 % 1026,7 hPa 0,0 l/m 10,5 km/h (2 Bft) N 1,00 h 3,6 UV-I 550 W/m 2,8 C 7,6 C 17,3 km/h (3 Bft)
04.05.2016 13:00 23,5 C 11,9 C 41 % 56 % 1026,5 hPa 0,0 l/m 11,8 km/h (2 Bft) N 1,00 h 4,5 UV-I 736 W/m 3,4 C 8,9 C 18,3 km/h (3 Bft)
04.05.2016 14:00 23,0 C 12,7 C 36 % 49 % 1026,6 hPa 0,0 l/m 9,7 km/h (2 Bft) N 1,00 h 4,3 UV-I 736 W/m 2,3 C 10,5 C 16,5 km/h (3 Bft)
04.05.2016 15:00 23,3 C 12,8 C 37 % 49 % 1026,5 hPa 0,0 l/m 9,9 km/h (2 Bft) N 1,00 h 3,1 UV-I 622 W/m 2,3 C 10,5 C 15,8 km/h (3 Bft)
04.05.2016 16:00 23,4 C 11,6 C 36 % 53 % 1026,5 hPa 0,0 l/m 8,4 km/h (2 Bft) N 0,87 h 1,6 UV-I 305 W/m 2,2 C 9,7 C 14,2 km/h (3 Bft)
04.05.2016 17:00 23,3 C 11,0 C 37 % 57 % 1026,7 hPa 0,0 l/m 8,4 km/h (2 Bft) N-NO 0,68 h 0,9 UV-I 215 W/m 2,9 C 9,1 C 14,1 km/h (3 Bft)
04.05.2016 18:00 23,6 C 10,1 C 38 % 63 % 1026,8 hPa 0,0 l/m 4,4 km/h (1 Bft) N-NO 0,00 h 0,5 UV-I 95 W/m 3,4 C 9,5 C 8,1 km/h (2 Bft)
04.05.2016 19:00 23,7 C 9,1 C 39 % 70 % 1027,0 hPa 0,0 l/m 4,5 km/h (1 Bft) N-NO 0,00 h 0,0 UV-I 54 W/m 3,9 C 8,5 C 9,4 km/h (2 Bft)
04.05.2016 20:00 23,7 C 8,0 C 41 % 74 % 1027,4 hPa 0,0 l/m 3,0 km/h (1 Bft) N-NO 0,00 h 0,0 UV-I 16 W/m 3,7 C 7,8 C 6,6 km/h (2 Bft)
04.05.2016 21:00 23,9 C 7,2 C 42 % 79 % 1027,8 hPa 0,0 l/m 0,1 km/h (0 Bft) NO 0,00 h 0,0 UV-I 0 W/m 3,8 C 7,2 C 0,4 km/h (0 Bft)
04.05.2016 22:00 24,0 C 7,0 C 42 % 80 % 1028,2 hPa 0,0 l/m 0,0 km/h (0 Bft) N 0,00 h 0,0 UV-I 0 W/m 3,9 C 7,0 C 0,0 km/h (0 Bft)
04.05.2016 23:00 23,9 C 7,0 C 43 % 80 % 1028,2 hPa 0,0 l/m 0,0 km/h (0 Bft) N 0,00 h 0,0 UV-I 0 W/m 3,8 C 7,0 C 0,0 km/h (0 Bft)
05.05.2016 00:00 23,9 C 6,8 C 43 % 82 % 1028,0 hPa 0,0 l/m 0,0 km/h (0 Bft) N 0,00 h 0,0 UV-I 0 W/m 3,9 C 6,8 C 0,1 km/h (0 Bft)
05.05.2016 01:00 23,8 C 6,5 C 44 % 84 % 1027,8 hPa 0,0 l/m 0,1 km/h (0 Bft) N-NW 0,00 h 0,0 UV-I 0 W/m 4,0 C 6,5 C 0,4 km/h (0 Bft)
05.05.2016 02:00 23,4 C 6,5 C 44 % 84 % 1027,6 hPa 0,0 l/m 0,9 km/h (0 Bft) N 0,00 h 0,0 UV-I 0 W/m 4,0 C 6,5 C 3,2 km/h (1 Bft)
05.05.2016 03:00 23,2 C 6,5 C 44 % 84 % 1027,3 hPa 0,0 l/m 0,3 km/h (0 Bft) N 0,00 h 0,0 UV-I 0 W/m 4,0 C 6,5 C 1,0 km/h (0 Bft)
05.05.2016 04:00 23,1 C 6,4 C 44 % 85 % 1027,1 hPa 0,0 l/m 0,2 km/h (0 Bft) N 0,00 h 0,0 UV-I 0 W/m 4,0 C 6,4 C 0,6 km/h (0 Bft)
05.05.2016 05:00 22,9 C 6,2 C 45 % 85 % 1027,3 hPa 0,0 l/m 0,1 km/h (0 Bft) N 0,00 h 0,0 UV-I 4 W/m 4,0 C 6,2 C 0,6 km/h (0 Bft)
05.05.2016 06:00 22,9 C 6,3 C 45 % 86 % 1027,3 hPa 0,0 l/m 0,2 km/h (0 Bft) N 0,00 h 0,0 UV-I 24 W/m 4,1 C 6,3 C 0,8 km/h (0 Bft)
05.05.2016 07:00 23,1 C 7,1 C 44 % 83 % 1027,2 hPa 0,0 l/m 0,1 km/h (0 Bft) N-NW 0,05 h 0,5 UV-I 93 W/m 4,5 C 7,1 C 0,4 km/h (0 Bft)
05.05.2016 08:00 23,2 C 9,2 C 45 % 76 % 1027,2 hPa 0,0 l/m 0,0 km/h (0 Bft) O 0,93 h 1,2 UV-I 346 W/m 5,2 C 9,2 C 0,6 km/h (0 Bft)
05.05.2016 09:00 23,2 C 11,9 C 45 % 60 % 1027,0 hPa 0,0 l/m 3,5 km/h (1 Bft) O-NO 1,00 h 2,3 UV-I 556 W/m 4,4 C 11,7 C 8,9 km/h (2 Bft)
05.05.2016 10:00 23,3 C 13,5 C 43 % 58 % 1026,8 hPa 0,0 l/m 3,4 km/h (1 Bft) O-NO 1,00 h 3,4 UV-I 674 W/m 5,5 C 13,2 C 7,5 km/h (2 Bft)
05.05.2016 11:00 23,2 C 14,0 C 43 % 57 % 1026,6 hPa 0,0 l/m 3,2 km/h (1 Bft) SO 1,00 h 4,1 UV-I 586 W/m 5,5 C 13,9 C 9,0 km/h (2 Bft)
05.05.2016 12:00 23,1 C 14,9 C 41 % 57 % 1026,0 hPa 0,0 l/m 3,5 km/h (1 Bft) O-SO 1,00 h 4,8 UV-I 611 W/m 6,3 C 14,5 C 6,3 km/h (2 Bft)
05.05.2016 13:00 22,9 C 15,9 C 41 % 54 % 1025,4 hPa 0,0 l/m 2,9 km/h (1 Bft) O-SO 1,00 h 5,2 UV-I 835 W/m 6,6 C 15,7 C 8,7 km/h (2 Bft)
05.05.2016 14:00 22,9 C 16,1 C 41 % 55 % 1024,9 hPa 0,0 l/m 2,4 km/h (1 Bft) O-SO 1,00 h 3,7 UV-I 411 W/m 7,0 C 16,0 C 7,4 km/h (2 Bft)
05.05.2016 15:00 22,7 C 16,7 C 40 % 54 % 1024,2 hPa 0,0 l/m 6,6 km/h (2 Bft) SO 1,00 h 3,6 UV-I 661 W/m 7,2 C 15,9 C 15,1 km/h (3 Bft)
05.05.2016 16:00 22,7 C 16,5 C 40 % 54 % 1023,7 hPa 0,0 l/m 7,1 km/h (2 Bft) O-SO 1,00 h 2,4 UV-I 522 W/m 7,3 C 15,6 C 15,7 km/h (3 Bft)
05.05.2016 17:00 23,3 C 16,3 C 41 % 56 % 1023,3 hPa 0,0 l/m 7,6 km/h (2 Bft) O-SO 1,00 h 1,5 UV-I 355 W/m 7,4 C 15,2 C 15,0 km/h (3 Bft)
05.05.2016 18:00 23,7 C 15,7 C 41 % 58 % 1022,7 hPa 0,0 l/m 3,2 km/h (1 Bft) O 0,08 h 0,8 UV-I 70 W/m 7,5 C 15,3 C 8,0 km/h (2 Bft)
05.05.2016 19:00 23,7 C 14,9 C 41 % 60 % 1022,3 hPa 0,0 l/m 1,3 km/h (1 Bft) O-SO 0,00 h 0,0 UV-I 29 W/m 7,3 C 14,8 C 4,4 km/h (1 Bft)
05.05.2016 20:00 23,8 C 13,9 C 42 % 65 % 1022,0 hPa 0,0 l/m 0,0 km/h (0 Bft) SO 0,00 h 0,0 UV-I 11 W/m 7,4 C 13,9 C 0,1 km/h (0 Bft)
05.05.2016 21:00 23,9 C 12,6 C 42 % 70 % 1021,9 hPa 0,0 l/m 0,0 km/h (0 Bft) N 0,00 h 0,0 UV-I 0 W/m 7,3 C 12,6 C 0,0 km/h (0 Bft)
05.05.2016 22:00 24,0 C 11,1 C 42 % 76 % 1021,7 hPa 0,0 l/m 0,0 km/h (0 Bft) N 0,00 h 0,0 UV-I 0 W/m 7,1 C 11,1 C 0,0 km/h (0 Bft)
05.05.2016 23:00 23,6 C 10,3 C 43 % 80 % 1021,5 hPa 0,0 l/m 0,0 km/h (0 Bft) N 0,00 h 0,0 UV-I 0 W/m 7,0 C 10,3 C 0,0 km/h (0 Bft)
06.05.2016 00:00 23,3 C 10,1 C 44 % 82 % 1021,3 hPa 0,0 l/m 0,1 km/h (0 Bft) O-NO 0,00 h 0,0 UV-I 0 W/m 7,1 C 10,1 C 0,4 km/h (0 Bft)
06.05.2016 01:00 23,1 C 9,6 C 44 % 83 % 1021,3 hPa 0,0 l/m 0,0 km/h (0 Bft) N 0,00 h 0,0 UV-I 0 W/m 7,0 C 9,6 C 0,3 km/h (0 Bft)
06.05.2016 02:00 23,0 C 8,7 C 45 % 86 % 1021,0 hPa 0,0 l/m 0,1 km/h (0 Bft) O 0,00 h 0,0 UV-I 0 W/m 6,5 C 8,7 C 0,9 km/h (0 Bft)
06.05.2016 03:00 22,9 C 7,9 C 45 % 89 % 1020,5 hPa 0,0 l/m 0,1 km/h (0 Bft) O-NO 0,00 h 0,0 UV-I 0 W/m 6,1 C 7,9 C 0,4 km/h (0 Bft)
06.05.2016 04:00 22,8 C 8,5 C 45 % 89 % 1020,2 hPa 0,0 l/m 0,0 km/h (0 Bft) N 0,00 h 0,0 UV-I 0 W/m 6,8 C 8,5 C 0,1 km/h (0 Bft)
06.05.2016 05:00 22,8 C 8,9 C 45 % 88 % 1020,0 hPa 0,0 l/m 1,2 km/h (1 Bft) O-NO 0,00 h 0,0 UV-I 7 W/m 7,0 C 8,9 C 3,0 km/h (1 Bft)
06.05.2016 06:00 22,9 C 8,3 C 45 % 88 % 1020,0 hPa 0,0 l/m 0,1 km/h (0 Bft) O-NO 0,00 h 0,0 UV-I 19 W/m 6,4 C 8,3 C 0,4 km/h (0 Bft)
06.05.2016 07:00 22,9 C 9,5 C 46 % 88 % 1020,1 hPa 0,0 l/m 1,9 km/h (1 Bft) O 0,77 h 0,7 UV-I 196 W/m 7,7 C 9,5 C 4,3 km/h (1 Bft)
06.05.2016 08:00 23,0 C 12,9 C 46 % 75 % 1019,9 hPa 0,0 l/m 7,2 km/h (2 Bft) O-SO 1,00 h 1,3 UV-I 403 W/m 8,6 C 12,0 C 10,2 km/h (2 Bft)
06.05.2016 09:00 23,0 C 14,9 C 45 % 66 % 1019,8 hPa 0,0 l/m 5,7 km/h (1 Bft) O-SO 1,00 h 2,4 UV-I 567 W/m 8,7 C 14,4 C 12,1 km/h (2 Bft)
06.05.2016 10:00 22,8 C 16,7 C 44 % 59 % 1019,4 hPa 0,0 l/m 5,1 km/h (1 Bft) O-SO 1,00 h 3,7 UV-I 697 W/m 8,6 C 16,2 C 13,5 km/h (3 Bft)
06.05.2016 11:00 22,9 C 18,2 C 42 % 51 % 1018,9 hPa 0,0 l/m 10,2 km/h (2 Bft) SO 1,00 h 4,8 UV-I 788 W/m 8,0 C 16,6 C 19,8 km/h (4 Bft)
06.05.2016 12:00 23,3 C 19,4 C 41 % 47 % 1018,3 hPa 0,0 l/m 8,0 km/h (2 Bft) SO 1,00 h 5,5 UV-I 831 W/m 7,7 C 18,4 C 17,4 km/h (3 Bft)
06.05.2016 13:00 23,4 C 20,2 C 40 % 42 % 1017,5 hPa 0,0 l/m 9,3 km/h (2 Bft) O-SO 1,00 h 5,6 UV-I 831 W/m 6,9 C 19,0 C 16,6 km/h (3 Bft)
06.05.2016 14:00 23,5 C 20,8 C 39 % 39 % 1017,0 hPa 0,0 l/m 7,9 km/h (2 Bft) SO 1,00 h 5,0 UV-I 783 W/m 6,4 C 19,9 C 16,4 km/h (3 Bft)
06.05.2016 15:00 23,4 C 21,2 C 38 % 37 % 1016,4 hPa 0,0 l/m 10,8 km/h (2 Bft) SO 1,00 h 4,0 UV-I 708 W/m 5,7 C 19,8 C 19,6 km/h (3 Bft)
06.05.2016 16:00 23,4 C 21,2 C 38 % 34 % 1015,7 hPa 0,0 l/m 10,0 km/h (2 Bft) SO 1,00 h 2,8 UV-I 518 W/m 4,8 C 20,0 C 17,9 km/h (3 Bft)
06.05.2016 17:00 23,5 C 21,1 C 39 % 37 % 1015,1 hPa 0,0 l/m 6,4 km/h (2 Bft) O-SO 1,00 h 1,6 UV-I 365 W/m 5,8 C 20,6 C 12,6 km/h (3 Bft)
06.05.2016 18:00 23,6 C 20,4 C 38 % 37 % 1014,8 hPa 0,0 l/m 4,8 km/h (1 Bft) O-SO 0,35 h 1,2 UV-I 141 W/m 5,3 C 20,2 C 10,4 km/h (2 Bft)
06.05.2016 19:00 23,3 C 19,3 C 38 % 39 % 1014,7 hPa 0,0 l/m 3,1 km/h (1 Bft) O-SO 0,00 h 0,0 UV-I 25 W/m 4,9 C 19,3 C 9,1 km/h (2 Bft)
06.05.2016 20:00 23,7 C 17,7 C 40 % 45 % 1014,6 hPa 0,0 l/m 1,8 km/h (1 Bft) O-SO 0,00 h 0,0 UV-I 10 W/m 5,5 C 17,6 C 5,2 km/h (1 Bft)
06.05.2016 21:00 23,9 C 15,8 C 41 % 51 % 1014,8 hPa 0,0 l/m 1,4 km/h (1 Bft) SO 0,00 h 0,0 UV-I 0 W/m 5,7 C 15,8 C 5,2 km/h (1 Bft)
06.05.2016 22:00 23,8 C 14,7 C 41 % 54 % 1014,9 hPa 0,0 l/m 0,2 km/h (0 Bft) O-SO 0,00 h 0,0 UV-I 0 W/m 5,5 C 14,7 C 1,1 km/h (0 Bft)
06.05.2016 23:00 23,4 C 13,9 C 42 % 56 % 1014,8 hPa 0,0 l/m 0,3 km/h (0 Bft) O-NO 0,00 h 0,0 UV-I 0 W/m 5,3 C 13,9 C 1,6 km/h (1 Bft)
07.05.2016 00:00 23,3 C 13,3 C 42 % 59 % 1014,8 hPa 0,0 l/m 2,0 km/h (1 Bft) O-NO 0,00 h 0,0 UV-I 0 W/m 5,4 C 13,3 C 5,7 km/h (1 Bft)
07.05.2016 01:00 23,2 C 12,5 C 43 % 61 % 1014,8 hPa 0,0 l/m 2,1 km/h (1 Bft) O-NO 0,00 h 0,0 UV-I 0 W/m 5,3 C 12,5 C 5,7 km/h (1 Bft)
07.05.2016 02:00 23,2 C 12,3 C 43 % 61 % 1014,6 hPa 0,0 l/m 1,8 km/h (1 Bft) O-NO 0,00 h 0,0 UV-I 0 W/m 4,9 C 12,2 C 6,2 km/h (2 Bft)
07.05.2016 03:00 23,1 C 12,6 C 43 % 59 % 1014,3 hPa 0,0 l/m 6,1 km/h (2 Bft) O-NO 0,00 h 0,0 UV-I 0 W/m 4,8 C 11,8 C 11,4 km/h (2 Bft)
07.05.2016 04:00 23,1 C 12,2 C 44 % 59 % 1014,0 hPa 0,0 l/m 2,1 km/h (1 Bft) O-SO 0,00 h 0,0 UV-I 0 W/m 4,5 C 12,1 C 5,0 km/h (1 Bft)
07.05.2016 05:00 23,1 C 11,8 C 44 % 61 % 1014,0 hPa 0,0 l/m 0,7 km/h (0 Bft) O-NO 0,00 h 0,0 UV-I 7 W/m 4,4 C 11,8 C 2,5 km/h (1 Bft)
07.05.2016 06:00 23,2 C 10,4 C 44 % 67 % 1014,2 hPa 0,0 l/m 0,5 km/h (0 Bft) O-NO 0,00 h 0,0 UV-I 18 W/m 4,5 C 10,4 C 1,4 km/h (1 Bft)
07.05.2016 07:00 23,3 C 12,4 C 45 % 60 % 1014,4 hPa 0,0 l/m 1,6 km/h (1 Bft) O-NO 0,77 h 0,7 UV-I 213 W/m 5,0 C 12,4 C 5,9 km/h (2 Bft)
07.05.2016 08:00 23,5 C 14,6 C 43 % 53 % 1014,4 hPa 0,0 l/m 2,6 km/h (1 Bft) N 1,00 h 1,4 UV-I 416 W/m 5,3 C 14,5 C 6,3 km/h (2 Bft)
07.05.2016 09:00 23,6 C 16,7 C 43 % 49 % 1014,4 hPa 0,0 l/m 2,9 km/h (1 Bft) O-SO 1,00 h 2,4 UV-I 567 W/m 5,8 C 16,5 C 9,0 km/h (2 Bft)
07.05.2016 10:00 23,4 C 18,1 C 41 % 44 % 1014,4 hPa 0,0 l/m 8,8 km/h (2 Bft) O-SO 1,00 h 3,6 UV-I 708 W/m 5,6 C 16,9 C 19,7 km/h (3 Bft)
07.05.2016 11:00 23,3 C 19,2 C 39 % 39 % 1014,3 hPa 0,0 l/m 10,9 km/h (2 Bft) O-SO 1,00 h 4,7 UV-I 798 W/m 4,9 C 17,5 C 21,6 km/h (4 Bft)
07.05.2016 12:00 23,3 C 20,4 C 38 % 37 % 1014,0 hPa 0,0 l/m 10,2 km/h (2 Bft) O-SO 1,00 h 5,4 UV-I 837 W/m 5,3 C 19,0 C 20,0 km/h (4 Bft)
07.05.2016 13:00 23,6 C 21,2 C 38 % 36 % 1013,6 hPa 0,0 l/m 8,3 km/h (2 Bft) SO 1,00 h 5,4 UV-I 835 W/m 5,5 C 20,3 C 16,9 km/h (3 Bft)
07.05.2016 14:00 23,8 C 21,7 C 39 % 33 % 1013,3 hPa 0,0 l/m 7,4 km/h (2 Bft) O-SO 1,00 h 4,9 UV-I 791 W/m 4,8 C 21,0 C 16,4 km/h (3 Bft)
07.05.2016 15:00 23,7 C 22,1 C 38 % 32 % 1012,7 hPa 0,0 l/m 6,9 km/h (2 Bft) SO 1,00 h 3,9 UV-I 704 W/m 4,5 C 21,5 C 15,3 km/h (3 Bft)
07.05.2016 16:00 23,6 C 21,8 C 36 % 31 % 1012,4 hPa 0,0 l/m 9,0 km/h (2 Bft) O-SO 1,00 h 2,7 UV-I 510 W/m 4,0 C 20,8 C 18,5 km/h (3 Bft)
07.05.2016 17:00 23,5 C 21,4 C 34 % 32 % 1012,0 hPa 0,0 l/m 7,0 km/h (2 Bft) O-SO 1,00 h 1,6 UV-I 403 W/m 4,2 C 20,8 C 15,1 km/h (3 Bft)
07.05.2016 18:00 23,4 C 20,7 C 35 % 34 % 1011,8 hPa 0,0 l/m 6,7 km/h (2 Bft) O-SO 0,02 h 0,9 UV-I 45 W/m 4,3 C 20,0 C 14,4 km/h (3 Bft)
07.05.2016 19:00 23,2 C 19,5 C 35 % 37 % 1012,0 hPa 0,0 l/m 3,2 km/h (1 Bft) O 0,00 h 0,0 UV-I 26 W/m 4,3 C 19,4 C 9,4 km/h (2 Bft)
07.05.2016 20:00 23,3 C 17,9 C 36 % 40 % 1012,4 hPa 0,0 l/m 1,5 km/h (1 Bft) O-NO 0,00 h 0,0 UV-I 11 W/m 4,2 C 17,8 C 4,3 km/h (1 Bft)
07.05.2016 21:00 23,8 C 15,9 C 38 % 46 % 1012,9 hPa 0,0 l/m 0,7 km/h (0 Bft) O-NO 0,00 h 0,0 UV-I 0 W/m 4,3 C 15,9 C 2,7 km/h (1 Bft)
07.05.2016 22:00 23,8 C 14,8 C 38 % 49 % 1013,2 hPa 0,0 l/m 2,6 km/h (1 Bft) O-NO 0,00 h 0,0 UV-I 0 W/m 4,1 C 14,7 C 6,3 km/h (2 Bft)
07.05.2016 23:00 23,5 C 14,0 C 39 % 53 % 1013,4 hPa 0,0 l/m 4,8 km/h (1 Bft) O-NO 0,00 h 0,0 UV-I 0 W/m 4,6 C 13,7 C 10,8 km/h (2 Bft)
08.05.2016 00:00 23,3 C 13,2 C 40 % 57 % 1013,8 hPa 0,0 l/m 1,5 km/h (1 Bft) O-NO 0,00 h 0,0 UV-I 0 W/m 4,8 C 13,2 C 4,9 km/h (1 Bft)
08.05.2016 01:00 23,3 C 13,4 C 40 % 55 % 1014,0 hPa 0,0 l/m 3,1 km/h (1 Bft) O 0,00 h 0,0 UV-I 0 W/m 4,6 C 13,2 C 8,5 km/h (2 Bft)
08.05.2016 02:00 23,3 C 13,0 C 41 % 55 % 1014,2 hPa 0,0 l/m 4,4 km/h (1 Bft) O 0,00 h 0,0 UV-I 0 W/m 4,3 C 12,5 C 9,7 km/h (2 Bft)
08.05.2016 03:00 23,2 C 11,7 C 41 % 61 % 1014,1 hPa 0,0 l/m 3,3 km/h (1 Bft) O-NO 0,00 h 0,0 UV-I 0 W/m 4,3 C 11,5 C 8,3 km/h (2 Bft)
08.05.2016 04:00 23,2 C 11,0 C 42 % 63 % 1013,9 hPa 0,0 l/m 7,8 km/h (2 Bft) O-NO 0,00 h 0,0 UV-I 0 W/m 4,3 C 9,8 C 13,3 km/h (3 Bft)
08.05.2016 05:00 23,2 C 9,8 C 42 % 68 % 1014,0 hPa 0,0 l/m 7,0 km/h (2 Bft) O-NO 0,00 h 0,0 UV-I 7 W/m 4,2 C 9,0 C 13,1 km/h (3 Bft)
08.05.2016 06:00 23,3 C 9,3 C 42 % 71 % 1014,2 hPa 0,0 l/m 1,5 km/h (1 Bft) O 0,00 h 0,0 UV-I 16 W/m 4,3 C 9,2 C 4,1 km/h (1 Bft)
08.05.2016 07:00 23,3 C 11,1 C 42 % 67 % 1014,5 hPa 0,0 l/m 3,4 km/h (1 Bft) O-NO 0,78 h 0,7 UV-I 219 W/m 5,2 C 10,6 C 8,2 km/h (2 Bft)
08.05.2016 08:00 23,5 C 13,8 C 43 % 59 % 1014,6 hPa 0,0 l/m 5,1 km/h (1 Bft) O-NO 1,00 h 1,4 UV-I 423 W/m 5,9 C 13,0 C 11,7 km/h (2 Bft)
08.05.2016 09:00 23,7 C 15,6 C 43 % 55 % 1014,8 hPa 0,0 l/m 3,7 km/h (1 Bft) O-NO 1,00 h 2,4 UV-I 575 W/m 6,7 C 15,3 C 9,4 km/h (2 Bft)
08.05.2016 10:00 23,8 C 17,4 C 42 % 52 % 1014,8 hPa 0,0 l/m 6,5 km/h (2 Bft) O-NO 1,00 h 3,5 UV-I 709 W/m 7,5 C 16,5 C 13,7 km/h (3 Bft)
08.05.2016 11:00 23,4 C 19,0 C 40 % 48 % 1014,6 hPa 0,0 l/m 9,5 km/h (2 Bft) O-NO 1,00 h 4,6 UV-I 795 W/m 7,8 C 17,7 C 19,9 km/h (4 Bft)
08.05.2016 12:00 23,5 C 19,6 C 41 % 46 % 1014,4 hPa 0,0 l/m 7,1 km/h (2 Bft) O-NO 1,00 h 5,2 UV-I 835 W/m 7,6 C 18,8 C 17,0 km/h (3 Bft)
08.05.2016 13:00 23,5 C 19,9 C 40 % 44 % 1014,5 hPa 0,0 l/m 9,3 km/h (2 Bft) O-SO 1,00 h 5,3 UV-I 838 W/m 7,2 C 18,6 C 19,8 km/h (3 Bft)
08.05.2016 14:00 23,5 C 20,2 C 40 % 44 % 1014,2 hPa 0,0 l/m 6,9 km/h (2 Bft) O 1,00 h 4,6 UV-I 795 W/m 7,5 C 19,5 C 17,7 km/h (3 Bft)
08.05.2016 15:00 23,8 C 20,4 C 41 % 43 % 1014,2 hPa 0,0 l/m 9,0 km/h (2 Bft) O-SO 0,97 h 3,7 UV-I 699 W/m 7,3 C 19,3 C 20,3 km/h (4 Bft)
08.05.2016 16:00 23,6 C 19,8 C 39 % 43 % 1014,3 hPa 0,0 l/m 7,9 km/h (2 Bft) O-SO 0,65 h 2,0 UV-I 326 W/m 6,8 C 18,9 C 17,9 km/h (3 Bft)
08.05.2016 17:00 23,8 C 19,5 C 40 % 42 % 1014,2 hPa 0,0 l/m 6,2 km/h (2 Bft) O 0,80 h 1,5 UV-I 396 W/m 6,3 C 19,0 C 15,4 km/h (3 Bft)
08.05.2016 18:00 24,2 C 19,0 C 42 % 43 % 1014,1 hPa 0,0 l/m 5,8 km/h (2 Bft) O 0,02 h 0,8 UV-I 42 W/m 6,0 C 18,5 C 16,5 km/h (3 Bft)
08.05.2016 19:00 24,2 C 18,1 C 42 % 45 % 1014,0 hPa 0,0 l/m 3,1 km/h (1 Bft) O 0,00 h 0,0 UV-I 22 W/m 5,9 C 17,9 C 9,0 km/h (2 Bft)
08.05.2016 20:00 24,2 C 16,6 C 42 % 53 % 1014,4 hPa 0,0 l/m 3,7 km/h (1 Bft) O-NO 0,00 h 0,0 UV-I 10 W/m 6,9 C 16,4 C 10,0 km/h (2 Bft)
08.05.2016 21:00 24,2 C 15,1 C 42 % 59 % 1014,7 hPa 0,0 l/m 5,0 km/h (1 Bft) O-NO 0,00 h 0,0 UV-I 0 W/m 7,2 C 14,7 C 11,5 km/h (2 Bft)
08.05.2016 22:00 23,9 C 14,1 C 42 % 63 % 1015,2 hPa 0,0 l/m 4,9 km/h (1 Bft) O-NO 0,00 h 0,0 UV-I 0 W/m 7,1 C 13,7 C 11,4 km/h (2 Bft)
08.05.2016 23:00 23,8 C 13,4 C 43 % 66 % 1015,4 hPa 0,0 l/m 1,8 km/h (1 Bft) NO 0,00 h 0,0 UV-I 0 W/m 7,3 C 13,3 C 6,0 km/h (2 Bft)
Min-Datum _ 02.05.16 03.05.16 04.05.16 07.05.16 07.05.16 - 02.05.16 - - - - 02.05.16 04.05.16 02.05.16
_ Min-Zeit 10:56 06:29 14:11 15:18 18:30 - 00:00 - - - - 06:26 08:47 00:00
Minimum _ 22,5 C 2,0 C 34 % 29 % 1011,6 hPa - 0,0 km/h (0 Bft) - - - - 0,5 C -1,0 C 0,0 km/h (0 Bft)
Max-Datum _ 02.05.16 07.05.16 05.05.16 02.05.16 04.05.16 03.05.16 03.05.16 - 05.05.16 04.05.16 04.05.16 03.05.16 07.05.16 03.05.16
_ Max-Zeit 19:10 14:54 08:06 07:39 22:42 15:42 18:26 - 10:24 13:11 11:45 16:06 14:56 18:22
Maximum _ 24,4 C 22,7 C 46 % 94 % 1028,3 hPa 0,6 l/m 27,4 km/h
N-NW (4 Bft)
- 0,05 h 5,9 UV-I 1125 W/m 10,2 C 22,6 C 41,8 km/h
NW (6 Bft)
Durchschnitt _ 23,4 C 12,6 C 42 % 63 % 1019,4 hPa #1,0 l/m 4,3 km/h (1 Bft) O-NO #69:32 h 2,8 UV-I 377 W/m 5,1 C 11,9 C 8,6 km/h (2 Bft)